Time;durP1;ratioP1;P1;durP2;ratioP2;P2;SDS_P1;SDS_P2;PMS_P1;PMS_P2;Temp;Humidity;BMP_temperature;BMP_pressure;BME280_temperature;BME280_humidity;BME280_pressure;Samples;Min_cycle;Max_cycle;Signal;HPM_P1;HPM_P2
2021/11/20 00:01:46;;;;;;;13.10;11.43;;;14.70;99.90;;;15.11;75.98;102802.91;5055031;28;20052;-66
2021/11/20 00:04:15;;;;;;;13.25;11.85;;;14.70;99.90;;;15.10;75.75;102808.19;5054849;28;20505;-65
2021/11/20 00:06:47;;;;;;;17.08;11.82;;;14.80;99.90;;;15.07;75.92;102803.75;5053858;28;20040;-66
2021/11/20 00:09:20;;;;;;;12.98;11.68;;;14.70;99.90;;;15.07;75.96;102803.75;5055109;28;20045;-66
2021/11/20 00:11:52;;;;;;;16.35;12.52;;;14.70;99.90;;;15.08;75.96;102797.53;5070489;28;20061;-66
2021/11/20 00:14:24;;;;;;;15.18;12.73;;;14.70;99.90;;;14.86;76.00;102763.59;5054962;28;20049;-66
2021/11/20 00:16:54;;;;;;;16.80;12.55;;;14.60;99.90;;;14.95;75.97;102779.66;5054985;28;20052;-66
2021/11/20 00:19:25;;;;;;;14.75;13.25;;;14.60;99.90;;;15.02;76.10;102791.28;5054719;28;20090;-66
2021/11/20 00:22:00;;;;;;;22.20;13.82;;;14.60;99.90;;;14.81;75.86;102744.00;5054899;28;20045;-66
2021/11/20 00:24:33;;;;;;;15.90;14.20;;;14.60;99.90;;;15.00;75.91;102782.38;5054607;28;20147;-67
2021/11/20 00:27:03;;;;;;;15.95;14.23;;;14.70;99.90;;;14.84;76.28;102744.03;5054492;28;20099;-67
2021/11/20 00:29:43;;;;;;;18.77;14.00;;;14.60;99.90;;;15.00;76.13;102777.03;5054505;28;20044;-67
2021/11/20 00:32:16;;;;;;;16.17;14.48;;;14.70;99.90;;;14.80;76.11;102749.31;5070182;28;20048;-66
2021/11/20 00:34:47;;;;;;;18.10;15.95;;;14.60;99.90;;;14.93;76.15;102784.09;5070039;28;20061;-66
2021/11/20 00:37:16;;;;;;;18.25;14.88;;;14.60;99.90;;;14.72;76.43;102741.28;5054610;28;20045;-66
2021/11/20 00:39:45;;;;;;;18.67;15.40;;;14.60;99.90;;;14.90;76.58;102770.75;5054239;28;20037;-66
2021/11/20 00:42:14;;;;;;;19.70;16.38;;;14.50;99.90;;;14.73;76.64;102743.03;5054052;28;20056;-66
2021/11/20 00:44:48;;;;;;;19.35;15.93;;;14.50;99.90;;;14.87;76.57;102783.13;5054438;28;20055;-66
2021/11/20 00:47:19;;;;;;;18.05;16.10;;;14.50;99.90;;;14.83;76.78;102776.88;5052735;28;20056;-66
2021/11/20 00:49:50;;;;;;;18.83;15.93;;;14.50;99.90;;;14.76;76.85;102750.19;5052546;28;20053;-66
2021/11/20 00:52:19;;;;;;;23.77;17.90;;;14.50;99.90;;;14.61;77.20;102739.41;5053632;28;20103;-66
2021/11/20 00:54:49;;;;;;;21.38;16.83;;;14.40;99.90;;;14.66;77.63;102759.88;5052855;28;20075;-66
2021/11/20 00:57:18;;;;;;;20.35;17.58;;;14.40;99.90;;;14.67;77.89;102774.97;5069177;28;20044;-67
2021/11/20 00:59:48;;;;;;;20.77;18.08;;;14.30;99.90;;;14.56;77.65;102728.69;5053843;28;20114;-66
2021/11/20 01:02:20;;;;;;;21.67;18.13;;;14.30;99.90;;;14.67;77.53;102747.44;5054047;28;20048;-66
2021/11/20 01:04:49;;;;;;;23.40;20.00;;;14.30;99.90;;;14.70;77.41;102759.00;5069502;28;20568;-66
2021/11/20 01:07:18;;;;;;;22.15;19.75;;;14.40;99.90;;;14.73;77.45;102761.69;5052685;28;20407;-66
2021/11/20 01:09:47;;;;;;;23.48;19.92;;;14.40;99.90;;;14.79;77.33;102760.88;5052632;28;20048;-66
2021/11/20 01:12:19;;;;;;;23.40;19.70;;;14.40;99.90;;;14.55;77.28;102736.66;5069112;28;20053;-66
2021/11/20 01:14:53;;;;;;;23.70;18.92;;;14.40;99.90;;;14.66;77.95;102761.63;5069458;28;20063;-66
2021/11/20 01:17:25;;;;;;;23.50;18.98;;;14.30;99.90;;;14.74;77.81;102751.94;5069255;28;20429;-66
2021/11/20 01:19:54;;;;;;;22.98;19.77;;;14.40;99.90;;;14.75;77.69;102754.59;5069281;28;20409;-66
2021/11/20 01:22:29;;;;;;;23.48;19.42;;;14.40;99.90;;;14.64;77.49;102734.97;5053772;28;20111;-66
2021/11/20 01:25:16;;;;;;;23.52;19.65;;;14.40;99.90;;;14.77;77.38;102767.97;5053482;28;20083;-66
2021/11/20 01:28:19;;;;;;;25.23;19.15;;;14.40;99.90;;;14.78;77.21;102762.66;5052634;28;20080;-66
2021/11/20 01:31:31;;;;;;;26.92;19.52;;;14.50;99.90;;;14.83;76.86;102754.66;5051129;28;20506;-66
2021/11/20 01:34:01;;;;;;;26.58;20.10;;;14.50;99.90;;;14.81;76.64;102743.09;5034356;28;20045;-66
2021/11/20 01:36:32;;;;;;;27.85;20.23;;;14.50;99.90;;;14.77;76.50;102746.66;5058866;28;20049;-66
2021/11/20 01:39:08;;;;;;;26.67;20.77;;;14.40;99.90;;;14.50;76.74;102709.13;5068880;28;20049;-66
2021/11/20 01:41:43;;;;;;;25.10;20.57;;;14.50;99.90;;;14.10;76.91;102638.59;5068938;28;20143;-66
2021/11/20 01:44:37;;;;;;;25.35;19.63;;;14.40;99.90;;;14.60;76.83;102717.19;5053037;28;20280;-66
2021/11/20 01:47:17;;;;;;;24.45;19.67;;;14.40;99.90;;;14.64;76.75;102724.31;5051938;28;20048;-66
2021/11/20 01:49:53;;;;;;;25.88;20.85;;;14.40;99.90;;;14.66;76.60;102735.88;5051834;28;20041;-66
2021/11/20 01:52:37;;;;;;;25.15;19.52;;;14.40;99.90;;;14.73;76.56;102742.19;5053105;28;20049;-66
2021/11/20 01:55:19;;;;;;;24.33;20.60;;;14.30;99.90;;;14.70;76.26;102734.13;5051985;28;20131;-66
2021/11/20 01:58:25;;;;;;;24.50;19.55;;;14.30;99.90;;;14.72;76.00;102722.63;5053676;28;20057;-66
2021/11/20 02:01:04;;;;;;;22.45;19.25;;;14.30;99.90;;;14.72;75.83;102722.63;5068560;28;20049;-66
2021/11/20 02:03:49;;;;;;;24.45;19.35;;;14.30;99.90;;;14.63;75.80;102724.31;5053430;28;20100;-66
2021/11/20 02:06:35;;;;;;;23.67;19.58;;;14.30;99.90;;;14.67;75.57;102724.38;5068686;28;20418;-66
2021/11/20 02:09:12;;;;;;;23.80;19.33;;;14.30;99.90;;;14.61;75.68;102713.66;5053235;28;20033;-66
2021/11/20 02:12:05;;;;;;;21.98;17.75;;;14.30;99.90;;;14.67;75.31;102715.47;5053008;28;20048;-66
2021/11/20 02:14:35;;;;;;;21.80;18.27;;;14.30;99.90;;;14.60;75.41;102719.84;5051813;28;20107;-67
2021/11/20 02:17:13;;;;;;;22.73;18.02;;;14.20;99.90;;;14.53;75.66;102720.69;5051822;28;20466;-67
2021/11/20 02:19:49;;;;;;;21.98;17.85;;;14.20;99.90;;;14.44;75.65;102710.81;5051802;28;20060;-66
2021/11/20 02:22:30;;;;;;;23.23;18.52;;;14.10;99.90;;;14.53;75.41;102714.47;5051782;28;20072;-66
2021/11/20 02:24:58;;;;;;;21.93;18.70;;;14.20;99.90;;;14.55;75.43;102713.59;5051468;28;20045;-66
2021/11/20 02:28:04;;;;;;;23.25;18.50;;;14.20;99.90;;;14.52;75.45;102729.53;5051793;28;20299;-66
2021/11/20 02:30:36;;;;;;;21.95;17.67;;;14.20;99.90;;;14.36;75.47;102706.34;5068402;28;20052;-66
2021/11/20 02:33:08;;;;;;;21.88;17.92;;;14.10;99.90;;;14.43;75.66;102716.16;5068372;28;20045;-66
2021/11/20 02:35:47;;;;;;;22.25;18.20;;;14.10;99.90;;;14.38;75.84;102705.44;5051533;28;20048;-66
2021/11/20 02:38:21;;;;;;;22.35;18.40;;;14.00;99.90;;;14.38;75.83;102709.91;5052808;28;20123;-66
2021/11/20 02:40:50;;;;;;;21.98;18.20;;;14.00;99.90;;;14.25;75.78;102687.53;5051648;28;20076;-66
2021/11/20 02:43:21;;;;;;;22.40;17.77;;;14.00;99.90;;;14.36;75.69;102699.22;5068280;28;20059;-67
2021/11/20 02:46:10;;;;;;;22.15;18.25;;;14.00;99.90;;;14.28;75.52;102698.28;5068052;28;20494;-66
2021/11/20 02:48:40;;;;;;;21.92;17.98;;;14.00;99.90;;;14.30;75.56;102691.16;5051559;28;20148;-66
2021/11/20 02:51:12;;;;;;;22.17;18.25;;;13.90;99.90;;;14.25;75.85;102691.97;5068148;28;20048;-66
2021/11/20 02:53:44;;;;;;;20.85;18.27;;;13.90;99.90;;;14.17;75.95;102683.00;5052470;28;20037;-66
2021/11/20 02:56:17;;;;;;;25.13;19.17;;;13.80;99.90;;;14.20;75.92;102681.28;5051382;28;20052;-67
2021/11/20 02:58:48;;;;;;;22.38;18.98;;;13.80;99.90;;;13.99;75.94;102635.84;5051416;28;20068;-66
2021/11/20 03:01:22;;;;;;;22.80;19.08;;;13.90;99.90;;;14.25;75.91;102678.66;5051370;28;20136;-66
2021/11/20 03:03:51;;;;;;;21.85;18.20;;;13.90;99.90;;;14.26;75.63;102686.69;5067800;28;20152;-66
2021/11/20 03:06:21;;;;;;;22.33;18.15;;;13.90;99.90;;;14.27;75.35;102675.16;5052559;28;20056;-66
2021/11/20 03:08:50;;;;;;;24.77;18.95;;;14.00;99.90;;;14.26;75.52;102669.81;5067972;28;20041;-66
2021/11/20 03:11:20;;;;;;;23.63;19.00;;;13.90;99.90;;;14.26;75.51;102675.13;5051325;28;20549;-66
2021/11/20 03:13:51;;;;;;;;;;;13.90;99.90;;;14.28;75.36;102665.44;5053904;28;20045;-66
2021/11/20 03:16:39;;;;;;;21.58;18.77;;;13.90;99.90;;;13.87;75.52;102613.53;5054993;28;20337;-66
2021/11/20 03:19:08;;;;;;;23.50;19.05;;;13.80;99.90;;;14.25;75.54;102673.31;5054847;28;20128;-66
2021/11/20 03:21:40;;;;;;;22.23;19.38;;;13.90;99.90;;;14.17;75.45;102656.38;5054683;28;20037;-66
2021/11/20 03:24:12;;;;;;;22.23;18.90;;;13.90;99.90;;;14.31;75.43;102669.00;5055985;28;20045;-66
2021/11/20 03:26:40;;;;;;;22.77;18.80;;;14.00;99.90;;;14.33;75.42;102671.66;5054691;28;20045;-66
2021/11/20 03:29:12;;;;;;;23.40;19.10;;;14.00;99.90;;;14.34;75.16;102665.47;5054613;28;20133;-66
2021/11/20 03:31:43;;;;;;;22.10;19.50;;;14.00;99.90;;;14.33;75.33;102647.72;5054513;28;20478;-66
2021/11/20 03:34:12;;;;;;;21.95;19.48;;;14.00;99.90;;;14.33;75.06;102666.34;5054623;28;20052;-66
2021/11/20 03:36:41;;;;;;;23.10;19.65;;;14.00;99.90;;;14.32;74.87;102661.91;5054344;28;20091;-66
2021/11/20 03:39:16;;;;;;;20.88;18.60;;;14.00;99.90;;;14.16;74.52;102633.31;5054429;28;20056;-66
2021/11/20 03:41:45;;;;;;;21.98;19.70;;;14.00;99.90;;;14.37;74.23;102655.75;5070983;28;20048;-66
2021/11/20 03:44:14;;;;;;;23.85;19.65;;;14.00;99.90;;;14.39;73.91;102650.44;5070928;28;20219;-66
2021/11/20 03:46:46;;;;;;;22.15;19.80;;;14.10;99.90;;;14.37;73.78;102642.44;5054003;28;20401;-66
2021/11/20 03:49:16;;;;;;;23.02;20.55;;;14.00;99.90;;;14.37;73.94;102646.84;5053943;28;20045;-66
2021/11/20 03:51:45;;;;;;;22.98;20.48;;;14.00;99.90;;;14.28;74.02;102631.72;5054159;28;20160;-66
2021/11/20 03:54:14;;;;;;;21.95;19.80;;;14.00;99.90;;;14.19;73.92;102612.06;5054091;28;20136;-66
2021/11/20 03:56:43;;;;;;;20.75;18.65;;;13.90;99.90;;;14.21;73.89;102634.25;5054010;28;20041;-66
2021/11/20 03:59:12;;;;;;;20.85;18.17;;;13.90;99.90;;;14.25;73.71;102630.75;5070743;28;20049;-66
2021/11/20 04:01:45;;;;;;;21.52;19.38;;;13.90;99.90;;;13.62;73.77;102519.31;5070762;28;20051;-66
2021/11/20 04:04:17;;;;;;;20.75;18.73;;;13.90;99.90;;;14.24;73.84;102631.63;5070654;28;20053;-66
2021/11/20 04:06:46;;;;;;;20.63;18.73;;;13.90;99.90;;;14.07;73.91;102596.88;5070549;28;20076;-65
2021/11/20 04:09:15;;;;;;;21.80;19.70;;;13.90;99.90;;;14.21;73.92;102635.16;5070526;28;20102;-66
2021/11/20 04:11:49;;;;;;;21.77;19.58;;;13.90;99.90;;;14.19;73.88;102641.31;5053814;28;20094;-66
2021/11/20 04:14:22;;;;;;;24.77;22.13;;;13.80;99.90;;;14.15;74.08;102636.88;5053761;28;20045;-66
2021/11/20 04:16:52;;;;;;;27.75;24.48;;;13.80;99.90;;;13.97;74.27;102618.97;5053407;28;20124;-66
2021/11/20 04:19:22;;;;;;;28.65;24.98;;;13.80;99.90;;;14.11;74.35;102640.41;5053663;28;20049;-66
2021/11/20 04:21:53;;;;;;;26.90;24.10;;;13.80;99.90;;;13.95;74.76;102627.81;5053651;28;20119;-66
2021/11/20 04:24:24;;;;;;;29.70;26.25;;;13.80;99.90;;;14.01;74.98;102625.22;5053300;28;20041;-66
2021/11/20 04:27:05;;;;;;;31.85;27.27;;;13.70;99.90;;;13.98;75.13;102612.75;5054812;28;20049;-66
2021/11/20 04:30:00;;;;;;;31.45;27.42;;;13.70;99.90;;;14.02;75.24;102624.31;5052565;28;20077;-66
2021/11/20 04:32:31;;;;;;;35.25;28.08;;;13.70;99.90;;;13.95;75.51;102627.81;5070041;28;20052;-66
2021/11/20 04:35:00;;;;;;;34.85;28.65;;;13.70;99.90;;;13.97;75.68;102620.72;5054667;28;20464;-66
2021/11/20 04:37:29;;;;;;;39.00;30.05;;;13.70;99.90;;;13.84;75.91;102611.72;5053180;28;20076;-66
2021/11/20 04:40:00;;;;;;;34.72;29.05;;;13.60;99.90;;;13.76;75.69;102583.28;5053342;28;20129;-66
2021/11/20 04:42:29;;;;;;;37.75;31.02;;;13.60;99.90;;;13.89;75.83;102612.69;5053465;28;20445;-66
2021/11/20 04:44:57;;;;;;;35.00;29.17;;;13.60;99.90;;;13.35;75.90;102522.59;5069829;28;20037;-66
2021/11/20 04:47:27;;;;;;;36.50;30.08;;;13.60;99.90;;;13.84;76.16;102611.72;5052792;28;20401;-66
2021/11/20 04:49:57;;;;;;;36.58;29.45;;;13.50;99.90;;;13.85;76.15;102612.63;5054220;28;20056;-66
2021/11/20 04:52:25;;;;;;;36.90;29.77;;;13.50;99.90;;;13.81;76.51;102614.38;5069674;28;20076;-66
2021/11/20 04:54:55;;;;;;;37.78;31.25;;;13.50;99.90;;;13.86;76.29;102609.97;5069604;28;20303;-66
2021/11/20 04:57:31;;;;;;;36.33;31.60;;;13.50;99.90;;;13.87;75.90;102634.81;5069504;28;20049;-67
2021/11/20 04:59:59;;;;;;;39.30;31.23;;;13.50;99.90;;;13.81;75.94;102618.78;5069500;28;20049;-66
2021/11/20 05:02:30;;;;;;;;;;;13.50;99.90;;;13.77;75.89;102611.63;5069882;28;20049;-66
2021/11/20 05:05:00;;;;;;;39.75;33.65;;;13.50;99.90;;;13.66;76.15;102602.66;5052757;28;19926;-66
2021/11/20 05:07:29;;;;;;;39.53;33.50;;;13.40;99.90;;;13.75;76.02;102613.38;5053978;28;20041;-66
2021/11/20 05:09:59;;;;;;;40.35;33.50;;;13.30;99.90;;;13.71;75.91;102604.50;5053961;28;20292;-67
2021/11/20 05:12:28;;;;;;;37.58;32.55;;;13.30;99.90;;;13.72;75.67;102610.72;5053757;28;20405;-67
2021/11/20 05:15:09;;;;;;;37.30;31.48;;;13.40;99.90;;;13.66;75.91;102613.31;5052626;28;20044;-67
2021/11/20 05:17:38;;;;;;;40.70;34.33;;;13.40;99.90;;;13.12;75.91;102507.25;5053779;28;20075;-66
2021/11/20 05:20:23;;;;;;;39.47;34.25;;;13.30;99.90;;;13.64;76.01;102593.78;5069150;28;20099;-66
2021/11/20 05:22:52;;;;;;;42.15;35.55;;;13.30;99.90;;;13.71;75.72;102598.28;5054346;28;20048;-66
2021/11/20 05:25:21;;;;;;;38.92;34.53;;;13.30;99.90;;;13.71;75.43;102590.28;5052385;28;20064;-67
2021/11/20 05:27:53;;;;;;;39.83;35.22;;;13.40;99.90;;;13.78;75.28;102589.50;5052360;28;20072;-67
2021/11/20 05:30:29;;;;;;;39.13;33.45;;;13.40;99.90;;;11.95;75.03;102273.09;5052402;28;20048;-66
2021/11/20 05:33:01;;;;;;;38.47;34.30;;;13.40;99.90;;;13.28;75.25;102504.78;5052344;28;20044;-67
2021/11/20 05:35:32;;;;;;;37.67;33.67;;;13.40;99.90;;;13.69;75.38;102566.34;5053292;28;20426;-66
2021/11/20 05:38:01;;;;;;;38.47;34.38;;;13.40;99.90;;;13.58;75.17;102555.63;5051576;28;20475;-67
2021/11/20 05:40:31;;;;;;;36.42;32.47;;;13.40;99.90;;;13.46;75.23;102555.50;5052174;28;20044;-67
2021/11/20 05:43:04;;;;;;;38.47;33.72;;;13.30;99.90;;;13.49;75.20;102550.19;5052157;28;20049;-66
2021/11/20 05:45:39;;;;;;;37.55;33.33;;;13.30;99.90;;;13.71;75.37;102569.91;5052429;28;20481;-66
2021/11/20 05:48:08;;;;;;;39.42;35.17;;;13.40;99.90;;;13.68;75.38;102577.88;5053457;28;20064;-67
2021/11/20 05:50:39;;;;;;;37.47;33.33;;;13.40;99.90;;;13.74;75.45;102577.06;5051988;28;20525;-67
2021/11/20 05:53:15;;;;;;;40.92;35.55;;;13.40;99.90;;;13.73;75.36;102572.59;5068733;28;20060;-66
2021/11/20 05:55:46;;;;;;;39.47;35.17;;;13.40;99.90;;;13.70;75.30;102569.91;5051743;28;20048;-67
2021/11/20 05:58:15;;;;;;;39.35;35.05;;;13.40;99.90;;;13.72;75.71;102562.84;5053256;28;20049;-66
2021/11/20 06:00:48;;;;;;;43.08;36.05;;;13.30;99.90;;;13.52;75.44;102547.59;5052045;28;20045;-66
2021/11/20 06:03:18;;;;;;;42.80;35.47;;;13.30;99.90;;;13.06;75.93;102460.28;5052929;28;20045;-66
2021/11/20 06:05:53;;;;;;;37.50;33.03;;;13.30;99.90;;;13.55;76.14;102557.34;5051945;28;20566;-66
2021/11/20 06:08:23;;;;;;;39.70;32.78;;;13.20;99.90;;;13.56;76.09;102552.06;5068716;28;20410;-66
2021/11/20 06:10:57;;;;;;;41.08;32.15;;;13.20;99.90;;;13.51;76.08;102551.09;5051929;28;20079;-66
2021/11/20 06:13:27;;;;;;;38.03;31.45;;;13.20;99.90;;;13.38;76.39;102527.94;5051883;28;20053;-66
2021/11/20 06:16:01;;;;;;;39.78;31.92;;;13.10;99.90;;;13.50;76.33;102549.34;5068280;28;20048;-66
2021/11/20 06:18:30;;;;;;;40.10;33.08;;;13.20;99.90;;;13.42;76.61;102545.69;5051386;28;20041;-66
2021/11/20 06:21:03;;;;;;;39.80;32.70;;;13.10;99.90;;;13.48;76.64;102539.53;5051983;28;20048;-66
2021/11/20 06:23:36;;;;;;;40.55;31.80;;;13.10;99.90;;;13.37;76.60;102528.81;5068495;28;20069;-66
2021/11/20 06:26:10;;;;;;;39.15;31.83;;;13.10;99.90;;;13.44;76.41;102543.94;5068520;28;20413;-66
2021/11/20 06:28:40;;;;;;;41.60;33.05;;;13.10;99.90;;;13.45;76.69;102535.06;5051693;28;20072;-66
2021/11/20 06:31:16;;;;;;;41.40;32.67;;;13.10;99.90;;;13.43;76.93;102523.53;5051615;28;20053;-66
2021/11/20 06:33:50;;;;;;;39.92;32.78;;;13.10;99.90;;;13.17;77.23;102495.81;5051554;28;20098;-66
2021/11/20 06:36:44;;;;;;;39.25;31.73;;;13.10;99.90;;;13.38;77.31;102524.38;5033068;28;20045;-66
2021/11/20 06:39:23;;;;;;;39.72;32.05;;;13.00;99.90;;;13.41;77.17;102538.56;5068230;28;20049;-66
2021/11/20 06:41:52;;;;;;;37.63;31.13;;;13.10;99.90;;;13.39;77.15;102529.69;5051505;28;20106;-66
2021/11/20 06:44:20;;;;;;;39.47;32.60;;;13.10;99.90;;;13.32;77.29;102522.53;5051534;28;20127;-66
2021/11/20 06:46:49;;;;;;;36.40;29.80;;;13.00;99.90;;;13.34;77.29;102527.88;5067826;28;20053;-66
2021/11/20 06:49:17;;;;;;;36.97;29.90;;;13.00;99.90;;;13.19;77.21;102494.06;5071434;28;20388;-66
2021/11/20 06:51:55;;;;;;;38.15;30.95;;;13.00;99.90;;;13.43;77.28;102526.19;5071933;28;20051;-66
2021/11/20 06:54:43;;;;;;;38.22;30.10;;;13.10;99.90;;;13.55;77.27;102528.09;5056449;28;20056;-66
2021/11/20 06:57:36;;;;;;;35.15;29.27;;;13.20;99.90;;;13.57;76.78;102524.56;5056555;28;20068;-66
2021/11/20 07:00:33;;;;;;;36.25;29.77;;;13.20;99.90;;;13.56;76.94;102528.13;5060983;28;20053;-66
2021/11/20 07:03:20;;;;;;;35.97;29.77;;;13.20;99.90;;;13.52;77.02;102507.69;5054727;28;20053;-66
2021/11/20 07:05:59;;;;;;;35.42;30.45;;;13.30;99.90;;;13.74;76.71;102530.06;5071760;28;20107;-66
2021/11/20 07:08:30;;;;;;;34.90;28.70;;;13.40;99.90;;;13.74;76.58;102537.16;5056245;28;20131;-66
2021/11/20 07:11:02;;;;;;;36.20;30.08;;;13.40;99.90;;;13.73;76.24;102522.06;5056345;28;20098;-66
2021/11/20 07:13:31;;;;;;;37.13;29.70;;;13.40;99.90;;;13.68;76.50;102515.81;5055916;28;20041;-66
2021/11/20 07:16:01;;;;;;;36.03;29.50;;;13.40;99.90;;;13.63;76.55;102501.59;5054772;28;20041;-66
2021/11/20 07:18:31;;;;;;;36.13;29.33;;;13.40;99.90;;;13.61;76.73;102506.00;5071081;28;20048;-66
2021/11/20 07:21:18;;;;;;;34.60;29.67;;;13.30;99.90;;;13.74;76.36;102522.09;5056012;28;20055;-66
2021/11/20 07:24:04;;;;;;;35.80;29.17;;;13.40;99.90;;;13.62;76.73;102507.78;5054768;28;20426;-66
2021/11/20 07:26:33;;;;;;;37.95;31.33;;;13.40;99.90;;;13.74;76.41;102526.50;5054708;28;20049;-66
2021/11/20 07:29:01;;;;;;;36.85;30.00;;;13.40;99.90;;;13.74;76.66;102511.47;5071247;28;20524;-66
2021/11/20 07:32:15;;;;;;;37.50;31.35;;;13.40;99.90;;;13.68;76.70;102505.19;5054688;28;20048;-66
2021/11/20 07:34:45;;;;;;;36.25;30.52;;;13.40;99.90;;;13.68;76.56;102502.53;5071126;28;20079;-66
2021/11/20 07:37:13;;;;;;;36.42;29.38;;;13.40;99.90;;;13.63;76.54;102506.91;5054343;28;20438;-66
2021/11/20 07:39:44;;;;;;;37.10;30.65;;;13.30;99.90;;;13.47;76.85;102480.16;5054247;28;20051;-66
2021/11/20 07:42:12;;;;;;;37.60;31.50;;;13.30;99.90;;;13.57;77.23;102497.09;5054287;28;20073;-66
2021/11/20 07:45:04;;;;;;;39.58;30.73;;;13.20;99.90;;;13.55;77.35;102499.75;5054919;28;20049;-66
2021/11/20 07:47:42;;;;;;;40.92;34.25;;;13.20;99.90;;;13.47;77.48;102504.09;5053833;28;20067;-66
2021/11/20 07:50:11;;;;;;;40.28;33.17;;;13.20;99.90;;;13.50;77.57;102503.22;5054114;28;20073;-66
2021/11/20 07:52:40;;;;;;;41.47;33.25;;;13.20;99.90;;;13.48;77.68;102497.91;5070528;28;20490;-66
2021/11/20 07:55:12;;;;;;;40.72;32.67;;;13.20;99.90;;;13.42;78.21;102503.16;5070680;28;20064;-66
2021/11/20 07:58:10;;;;;;;43.53;34.72;;;13.00;99.90;;;13.38;78.40;102488.06;5051511;28;20082;-66
2021/11/20 08:00:40;;;;;;;44.13;35.53;;;13.10;99.90;;;13.45;78.31;102481.03;5069925;28;20140;-67
2021/11/20 08:03:12;;;;;;;45.45;36.95;;;13.10;99.90;;;13.47;78.77;102488.13;5053714;28;20466;-66
2021/11/20 08:06:10;;;;;;;44.08;36.63;;;13.10;99.90;;;13.48;78.78;102500.56;5052746;28;20053;-66
2021/11/20 08:08:40;;;;;;;48.53;37.28;;;13.10;99.90;;;13.54;78.72;102489.09;5055106;28;20049;-67
2021/11/20 08:11:20;;;;;;;44.70;36.83;;;13.20;99.90;;;13.47;78.81;102480.16;5053788;28;20441;-67
2021/11/20 08:13:48;;;;;;;48.22;37.97;;;13.20;99.90;;;13.46;79.30;102480.16;5053702;28;20045;-70
2021/11/20 08:16:43;;;;;;;48.55;38.03;;;13.10;99.90;;;13.41;79.40;102474.78;5070051;28;20497;-69
2021/11/20 08:19:33;;;;;;;51.42;37.75;;;13.10;99.90;;;13.43;79.78;102475.69;5053454;28;20106;-65
2021/11/20 08:22:02;;;;;;;50.50;39.15;;;13.10;99.90;;;13.42;79.58;102467.72;5054920;28;20080;-67
2021/11/20 08:24:35;;;;;;;51.20;39.47;;;13.10;99.90;;;11.13;79.75;102061.81;5070145;28;20080;-66
2021/11/20 08:27:09;;;;;;;50.53;39.50;;;13.10;99.90;;;13.41;79.97;102452.66;5053415;28;20045;-66
2021/11/20 08:29:47;;;;;;;52.40;38.55;;;13.10;99.90;;;13.50;80.02;102461.59;5053266;28;20056;-66
2021/11/20 08:32:15;;;;;;;49.72;38.22;;;13.10;99.90;;;13.19;79.82;102427.63;5069612;28;20045;-66
2021/11/20 08:35:08;;;;;;;51.75;40.30;;;13.10;99.90;;;13.50;80.36;102450.06;5053101;28;20049;-66
2021/11/20 08:37:59;;;;;;;52.72;39.53;;;13.10;99.90;;;13.29;80.50;102428.59;5053241;28;20144;-66
2021/11/20 08:40:47;;;;;;;55.90;41.10;;;13.10;99.90;;;13.32;80.47;102426.84;5053073;28;20053;-68
2021/11/20 08:43:18;;;;;;;56.40;42.30;;;13.20;99.90;;;13.55;80.27;102450.97;5069709;28;20045;-67
2021/11/20 08:45:52;;;;;;;57.30;42.53;;;13.20;99.90;;;13.49;80.47;102448.31;5053084;28;20063;-67
2021/11/20 08:48:22;;;;;;;57.55;41.17;;;13.20;99.90;;;13.48;80.72;102458.03;5054339;28;20052;-68
2021/11/20 08:50:54;;;;;;;57.75;42.20;;;13.20;99.90;;;13.31;80.81;102429.50;5052502;28;20508;-70
2021/11/20 08:53:23;;;;;;;58.90;42.58;;;13.20;99.90;;;13.48;81.05;102455.38;5054290;28;20462;-66
2021/11/20 08:55:53;;;;;;;54.72;40.78;;;13.20;99.90;;;13.34;80.83;102410.91;5052805;28;20045;-67
2021/11/20 08:58:43;;;;;;;57.03;39.58;;;13.20;99.90;;;13.62;80.60;102443.97;5052779;28;20402;-68
2021/11/20 09:01:26;;;;;;;52.90;39.45;;;13.30;99.90;;;13.55;80.66;102432.38;5069496;28;20175;-67
2021/11/20 09:04:11;;;;;;;55.67;40.35;;;13.30;99.90;;;13.54;80.47;102418.22;5052801;28;20521;-67
2021/11/20 09:06:44;;;;;;;53.85;38.08;;;13.30;99.90;;;13.50;80.87;102432.34;5053896;28;20033;-68
2021/11/20 09:09:23;;;;;;;54.03;38.35;;;13.30;99.90;;;13.46;81.27;102430.53;5052629;28;20053;-67
2021/11/20 09:11:57;;;;;;;53.58;39.60;;;13.20;99.90;;;13.56;81.04;102427.09;5051669;28;20079;-67
2021/11/20 09:14:34;;;;;;;53.17;38.33;;;13.20;99.90;;;13.62;81.12;102430.66;5069150;28;20443;-67
2021/11/20 09:17:16;;;;;;;50.92;37.42;;;13.30;99.90;;;13.45;81.18;102394.19;5052392;28;20055;-67
2021/11/20 09:19:46;;;;;;;50.13;35.72;;;13.30;99.90;;;13.55;81.06;102412.00;5053464;28;20497;-68
2021/11/20 09:22:19;;;;;;;46.13;35.15;;;13.30;99.90;;;13.59;80.97;102421.78;5069126;28;20629;-67
2021/11/20 09:25:16;;;;;;;44.67;34.85;;;13.30;99.90;;;13.62;81.15;102420.03;5052620;28;20045;-66
2021/11/20 09:28:08;;;;;;;43.90;34.42;;;13.30;99.90;;;13.59;81.37;102421.78;5053472;28;20461;-65
2021/11/20 09:30:42;;;;;;;44.22;35.45;;;13.30;99.90;;;13.63;81.16;102417.38;5052208;28;20041;-63
2021/11/20 09:33:10;;;;;;;43.92;34.72;;;13.30;99.90;;;13.54;81.10;102396.03;5052364;28;20044;-66
2021/11/20 09:35:44;;;;;;;45.78;36.03;;;13.30;99.90;;;13.71;80.95;102421.00;5068777;28;20044;-67
2021/11/20 09:38:47;;;;;;;43.83;34.75;;;13.40;99.90;;;13.52;80.83;102382.75;5070932;28;20040;-66
2021/11/20 09:41:20;;;;;;;45.60;35.88;;;13.40;99.90;;;13.37;80.90;102360.47;5051430;28;20045;-65
2021/11/20 09:43:52;;;;;;;43.30;35.72;;;13.40;99.90;;;13.74;81.16;102414.81;5051846;28;20069;-64
2021/11/20 09:46:25;;;;;;;45.00;35.58;;;13.40;99.90;;;13.81;80.76;102422.84;5068571;28;20040;-64
2021/11/20 09:49:00;;;;;;;44.95;34.92;;;13.40;99.90;;;13.74;80.90;102409.50;5052072;28;20136;-65
2021/11/20 09:51:34;;;;;;;42.00;33.97;;;13.40;99.90;;;13.79;80.86;102413.06;5051857;28;20053;-65
2021/11/20 09:54:10;;;;;;;42.65;34.78;;;13.40;99.90;;;13.81;80.45;102419.28;5051677;28;20049;-65
2021/11/20 09:56:44;;;;;;;44.10;35.33;;;13.50;99.90;;;13.74;80.63;102393.53;5052952;28;20107;-66
2021/11/20 09:59:29;;;;;;;45.35;35.97;;;13.50;99.90;;;13.75;80.84;102400.63;5053126;28;20136;-66
2021/11/20 10:02:08;;;;;;;46.00;35.63;;;13.50;99.90;;;13.80;80.90;102414.84;5052801;28;20041;-65
2021/11/20 10:04:52;;;;;;;42.67;34.80;;;13.50;99.90;;;13.83;80.51;102409.53;5052596;28;20044;-67
2021/11/20 10:07:28;;;;;;;45.00;36.78;;;13.50;99.90;;;13.95;80.73;102412.31;5052872;28;20041;-65
2021/11/20 10:10:02;;;;;;;44.22;35.10;;;13.60;99.90;;;13.94;80.77;102405.19;5052885;28;20048;-67
2021/11/20 10:12:39;;;;;;;47.22;37.42;;;13.60;99.90;;;13.95;80.88;102410.53;5053006;28;20057;-64
2021/11/20 10:15:16;;;;;;;50.55;38.15;;;13.60;99.90;;;13.98;80.53;102407.88;5052665;28;20036;-67
2021/11/20 10:17:51;;;;;;;46.28;37.75;;;13.60;99.90;;;13.98;80.72;102402.56;5052880;28;20383;-67
2021/11/20 10:20:44;;;;;;;49.35;39.13;;;13.60;99.90;;;13.93;80.87;102406.06;5052665;28;20080;-64
2021/11/20 10:23:32;;;;;;;52.95;39.30;;;13.60;99.90;;;13.84;80.85;102401.56;5053104;28;20083;-65
2021/11/20 10:26:30;;;;;;;54.78;41.10;;;13.60;99.90;;;13.63;81.27;102363.31;5056993;28;20037;-64
2021/11/20 10:29:18;;;;;;;52.53;40.40;;;13.50;99.90;;;13.82;81.54;102395.34;5056758;28;20112;-64
2021/11/20 10:31:51;;;;;;;51.53;39.28;;;13.40;99.90;;;13.81;81.26;102388.25;5056692;28;20052;-63
2021/11/20 10:34:25;;;;;;;55.75;40.45;;;13.50;99.90;;;13.73;81.28;102383.75;5056700;28;20045;-64